createdAt,value
2022-07-29T00:02:11.864Z,17.01
2022-07-29T00:05:42.070Z,17.03
2022-07-29T00:09:11.245Z,17.02
2022-07-29T00:12:38.334Z,17.02
2022-07-29T00:16:06.618Z,17.01
2022-07-29T00:20:07.967Z,17.00
2022-07-29T00:23:36.859Z,16.99
2022-07-29T00:27:04.541Z,16.95
2022-07-29T00:30:31.323Z,16.89
2022-07-29T00:33:59.021Z,16.82
2022-07-29T00:37:26.100Z,16.76
2022-07-29T00:40:53.879Z,16.71
2022-07-29T00:44:21.300Z,16.68
2022-07-29T00:47:49.015Z,16.64
2022-07-29T00:51:16.834Z,16.62
2022-07-29T00:54:45.018Z,16.63
2022-07-29T00:58:14.528Z,16.63
2022-07-29T01:01:43.412Z,16.64
2022-07-29T01:05:13.797Z,16.64
2022-07-29T01:08:41.409Z,16.65
2022-07-29T01:12:10.259Z,16.65
2022-07-29T01:15:49.374Z,16.65
2022-07-29T01:19:41.616Z,16.64
2022-07-29T01:23:47.191Z,16.60
2022-07-29T01:27:44.262Z,16.57
2022-07-29T01:31:24.360Z,16.54
2022-07-29T01:34:57.110Z,16.50
2022-07-29T01:38:30.502Z,16.47
2022-07-29T01:42:04.881Z,16.43
2022-07-29T01:45:42.104Z,16.38
2022-07-29T01:49:16.828Z,16.34
2022-07-29T01:52:50.329Z,16.33
2022-07-29T01:56:26.114Z,16.32
2022-07-29T01:59:56.563Z,16.30
2022-07-29T02:03:29.875Z,16.29
2022-07-29T02:06:57.493Z,16.30
2022-07-29T02:10:28.784Z,16.27
2022-07-29T02:14:11.293Z,16.30
2022-07-29T02:17:44.682Z,16.30
2022-07-29T02:21:15.159Z,16.26
2022-07-29T02:24:45.197Z,16.20
2022-07-29T02:28:15.507Z,16.19
2022-07-29T02:31:52.928Z,16.15
2022-07-29T02:35:25.512Z,16.10
2022-07-29T02:39:01.245Z,16.05
2022-07-29T02:42:34.407Z,16.00
2022-07-29T02:46:05.775Z,15.97
2022-07-29T02:49:43.875Z,15.93
2022-07-29T02:53:17.610Z,15.93
2022-07-29T02:56:48.230Z,15.94
2022-07-29T03:00:18.423Z,15.96
2022-07-29T03:03:48.822Z,15.99
2022-07-29T03:07:18.292Z,16.02
2022-07-29T03:10:49.156Z,16.02
2022-07-29T03:14:17.749Z,16.03
2022-07-29T03:17:46.745Z,16.05
2022-07-29T03:21:14.197Z,16.08
2022-07-29T03:24:41.279Z,16.10
2022-07-29T03:28:10.524Z,16.10
2022-07-29T03:31:37.506Z,16.10
2022-07-29T03:35:05.523Z,16.10
2022-07-29T03:38:36.575Z,16.07
2022-07-29T03:42:08.227Z,16.06
2022-07-29T03:45:36.666Z,16.05
2022-07-29T03:49:06.904Z,16.03
2022-07-29T03:52:38.493Z,16.04
2022-07-29T03:56:08.886Z,16.04
2022-07-29T03:59:37.406Z,16.05
2022-07-29T04:03:11.772Z,16.07
2022-07-29T04:06:45.745Z,16.12
2022-07-29T04:10:26.910Z,16.18
2022-07-29T04:13:58.894Z,16.24
2022-07-29T04:17:25.643Z,16.30
2022-07-29T04:20:52.601Z,16.38
2022-07-29T04:24:20.074Z,16.44
2022-07-29T04:28:00.856Z,16.52
2022-07-29T04:31:27.981Z,16.59
2022-07-29T04:34:54.842Z,16.66
2022-07-29T04:38:21.792Z,16.72
2022-07-29T04:41:49.135Z,16.75
2022-07-29T04:45:16.242Z,16.78
2022-07-29T04:48:43.681Z,16.82
2022-07-29T04:52:11.348Z,16.84
2022-07-29T04:55:39.262Z,16.84
2022-07-29T04:59:06.663Z,16.85
2022-07-29T05:02:33.769Z,16.85
2022-07-29T05:06:01.225Z,16.87
2022-07-29T05:09:28.115Z,16.94
2022-07-29T05:12:55.363Z,17.01
2022-07-29T05:16:25.301Z,17.10
2022-07-29T05:19:53.377Z,17.20
2022-07-29T05:23:20.503Z,17.32
2022-07-29T05:26:47.671Z,17.39
2022-07-29T05:30:16.116Z,17.43
2022-07-29T05:33:43.368Z,17.45
2022-07-29T05:37:10.564Z,17.48
2022-07-29T05:40:37.587Z,17.53
2022-07-29T05:44:04.768Z,17.60
2022-07-29T05:47:32.279Z,17.67
2022-07-29T05:50:59.513Z,17.72
2022-07-29T05:54:27.007Z,17.77
2022-07-29T05:58:01.026Z,17.80
2022-07-29T06:01:28.851Z,17.84
2022-07-29T06:04:56.397Z,17.91
2022-07-29T06:08:23.670Z,17.97
2022-07-29T06:11:50.560Z,18.08
2022-07-29T06:15:17.560Z,18.19
2022-07-29T06:18:45.589Z,18.31
2022-07-29T06:22:12.575Z,18.45
2022-07-29T06:25:42.074Z,18.59
2022-07-29T06:29:09.825Z,18.69
2022-07-29T06:32:43.048Z,18.81
2022-07-29T06:36:11.714Z,18.93
2022-07-29T06:39:40.540Z,19.02
2022-07-29T06:43:07.758Z,19.10
2022-07-29T06:46:35.877Z,19.17
2022-07-29T06:50:03.168Z,19.27
2022-07-29T06:53:36.847Z,19.35
2022-07-29T06:57:04.798Z,19.43
2022-07-29T07:00:32.927Z,19.51
2022-07-29T07:04:01.008Z,19.59
2022-07-29T07:07:28.217Z,19.71
2022-07-29T07:10:56.507Z,19.82
2022-07-29T07:14:24.136Z,19.92
2022-07-29T07:17:51.851Z,20.01
2022-07-29T07:21:19.674Z,20.09
2022-07-29T07:24:47.121Z,20.18
2022-07-29T07:28:14.847Z,20.31
2022-07-29T07:31:42.378Z,20.41
2022-07-29T07:35:15.883Z,20.50
2022-07-29T07:38:41.321Z,20.57
2022-07-29T07:42:08.572Z,20.61
2022-07-29T07:45:35.775Z,20.69
2022-07-29T07:49:02.853Z,20.79
2022-07-29T07:52:29.880Z,20.89
2022-07-29T07:56:13.005Z,20.97
2022-07-29T07:59:40.676Z,21.12
2022-07-29T08:03:16.606Z,21.24
2022-07-29T08:06:44.357Z,21.35
2022-07-29T08:10:12.507Z,21.46
2022-07-29T08:13:41.777Z,21.58
2022-07-29T08:17:09.123Z,21.70
2022-07-29T08:20:36.891Z,21.79
2022-07-29T08:24:19.509Z,21.91
2022-07-29T08:27:46.796Z,22.02
2022-07-29T08:31:14.791Z,22.09
2022-07-29T08:34:42.263Z,22.18
2022-07-29T08:38:09.713Z,22.29
2022-07-29T08:41:37.968Z,22.35
2022-07-29T08:45:05.535Z,22.42
2022-07-29T08:48:36.480Z,22.42
2022-07-29T08:52:05.885Z,22.45
2022-07-29T08:55:33.478Z,22.43
2022-07-29T08:59:06.763Z,22.46
2022-07-29T09:02:42.554Z,22.55
2022-07-29T09:06:10.824Z,22.71
2022-07-29T09:09:42.049Z,22.84
2022-07-29T09:13:10.105Z,23.01
2022-07-29T09:16:55.645Z,23.18
2022-07-29T09:20:25.174Z,23.35
2022-07-29T09:24:10.123Z,23.49
2022-07-29T09:27:37.804Z,23.66
2022-07-29T09:31:08.420Z,23.77
2022-07-29T09:34:36.996Z,23.85
2022-07-29T09:38:18.179Z,23.85
2022-07-29T09:42:03.916Z,23.91
2022-07-29T09:45:41.698Z,23.99
2022-07-29T09:49:38.366Z,24.10
2022-07-29T09:53:55.267Z,24.16
2022-07-29T09:57:39.498Z,24.21
2022-07-29T10:01:37.538Z,24.20
2022-07-29T10:05:22.467Z,24.20
2022-07-29T10:09:13.166Z,24.24
2022-07-29T10:12:55.786Z,24.27
2022-07-29T10:16:26.559Z,24.34
2022-07-29T10:19:54.430Z,24.46
2022-07-29T10:23:22.237Z,24.57
2022-07-29T10:26:49.954Z,24.63
2022-07-29T10:30:18.561Z,24.65
2022-07-29T10:33:56.761Z,24.72
2022-07-29T10:37:36.309Z,24.76
2022-07-29T10:41:32.443Z,24.77
2022-07-29T10:45:12.519Z,24.79
2022-07-29T10:48:59.571Z,24.84
2022-07-29T10:52:49.003Z,24.86
2022-07-29T10:56:28.817Z,24.86
2022-07-29T11:00:35.385Z,24.83
2022-07-29T11:04:05.943Z,24.83
2022-07-29T11:07:45.780Z,24.82
2022-07-29T11:11:44.119Z,24.80
2022-07-29T11:15:20.691Z,24.78
2022-07-29T11:19:26.715Z,24.78
2022-07-29T11:22:58.289Z,24.80
2022-07-29T11:26:27.473Z,24.79
2022-07-29T11:29:58.665Z,24.77
2022-07-29T11:37:28.929Z,24.85
2022-07-29T11:41:37.369Z,24.88
2022-07-29T11:45:41.659Z,24.88
2022-07-29T11:48:58.655Z,24.89
2022-07-29T11:56:34.414Z,24.99
2022-07-29T12:00:09.687Z,25.04
2022-07-29T12:03:41.118Z,25.10
2022-07-29T12:07:03.823Z,24.93
2022-07-29T12:07:16.827Z,25.22
2022-07-29T12:10:47.361Z,25.40
2022-07-29T12:14:30.928Z,25.60
2022-07-29T12:18:03.641Z,25.85
2022-07-29T12:21:31.358Z,26.04
2022-07-29T12:25:30.360Z,26.14
2022-07-29T12:28:51.145Z,26.20
2022-07-29T12:32:20.297Z,26.18
2022-07-29T12:36:03.577Z,26.16
2022-07-29T12:39:36.283Z,26.16
2022-07-29T12:43:17.691Z,26.15
2022-07-29T12:46:50.800Z,26.08
2022-07-29T12:50:36.253Z,26.00
2022-07-29T12:54:15.691Z,25.92
2022-07-29T12:57:53.618Z,25.86
2022-07-29T13:01:22.188Z,25.79
2022-07-29T13:05:00.352Z,25.72
2022-07-29T13:08:30.043Z,25.71
2022-07-29T13:11:57.688Z,25.75
2022-07-29T13:15:24.676Z,25.81
2022-07-29T13:19:05.265Z,25.88
2022-07-29T13:22:32.819Z,26.05
2022-07-29T13:26:10.359Z,26.35
2022-07-29T13:29:38.822Z,26.70
2022-07-29T13:33:09.495Z,27.23
2022-07-29T13:36:41.304Z,27.75
2022-07-29T13:40:11.212Z,28.25
2022-07-29T13:43:38.626Z,28.65
2022-07-29T13:47:06.857Z,28.95
2022-07-29T13:50:34.127Z,29.22
2022-07-29T13:54:01.291Z,29.48
2022-07-29T13:57:29.447Z,29.51
2022-07-29T14:00:59.686Z,29.78
2022-07-29T14:04:27.195Z,30.11
2022-07-29T14:07:54.806Z,30.48
2022-07-29T14:11:22.672Z,30.67
2022-07-29T14:14:52.230Z,30.66
2022-07-29T14:18:19.465Z,30.47
2022-07-29T14:21:46.697Z,30.51
2022-07-29T14:25:15.701Z,30.72
2022-07-29T14:28:45.972Z,30.67
2022-07-29T14:32:16.253Z,30.34
2022-07-29T14:35:43.613Z,29.96
2022-07-29T14:39:10.848Z,30.01
2022-07-29T14:42:39.020Z,30.10
2022-07-29T14:46:08.467Z,30.38
2022-07-29T14:49:36.143Z,30.60
2022-07-29T14:53:05.046Z,30.38
2022-07-29T14:56:37.289Z,30.08
2022-07-29T15:00:07.241Z,29.95
2022-07-29T15:03:36.824Z,30.13
2022-07-29T15:07:04.990Z,30.40
2022-07-29T15:10:33.341Z,30.61
2022-07-29T15:14:00.624Z,30.55
2022-07-29T15:17:28.075Z,30.37
2022-07-29T15:20:57.587Z,30.28
2022-07-29T15:24:27.662Z,30.01
2022-07-29T15:28:00.779Z,29.68
2022-07-29T15:31:28.885Z,29.53
2022-07-29T15:34:56.534Z,29.53
2022-07-29T15:38:28.603Z,29.46
2022-07-29T15:41:57.577Z,29.50
2022-07-29T15:45:25.712Z,29.62
2022-07-29T15:48:59.946Z,29.79
2022-07-29T15:52:30.017Z,29.92
2022-07-29T15:55:59.310Z,29.95
2022-07-29T15:59:27.804Z,29.77
2022-07-29T16:02:57.128Z,29.75
2022-07-29T16:06:24.449Z,29.70
2022-07-29T16:09:53.358Z,29.57
2022-07-29T16:13:21.007Z,29.30
2022-07-29T16:16:48.158Z,28.98
2022-07-29T16:20:15.971Z,28.70
2022-07-29T16:23:43.186Z,28.35
2022-07-29T16:27:10.429Z,27.99
2022-07-29T16:30:37.982Z,27.73
2022-07-29T16:34:07.650Z,27.49
2022-07-29T16:37:36.995Z,27.22
2022-07-29T16:41:06.514Z,27.00
2022-07-29T16:44:36.066Z,26.84
2022-07-29T16:48:06.279Z,26.70
2022-07-29T16:51:34.322Z,26.59
2022-07-29T16:55:02.900Z,26.48
2022-07-29T16:58:30.381Z,26.39
2022-07-29T17:01:58.308Z,26.27
2022-07-29T17:05:28.763Z,26.16
2022-07-29T17:08:56.284Z,26.06
2022-07-29T17:12:24.336Z,25.95
2022-07-29T17:15:57.560Z,25.83
2022-07-29T17:19:27.560Z,25.68
2022-07-29T17:22:54.790Z,25.52
2022-07-29T17:26:22.254Z,25.39
2022-07-29T17:29:51.081Z,25.27
2022-07-29T17:33:21.423Z,25.15
2022-07-29T17:36:50.307Z,25.00
2022-07-29T17:40:19.198Z,24.88
2022-07-29T17:43:48.361Z,24.79
2022-07-29T17:47:16.742Z,24.68
2022-07-29T17:50:45.720Z,24.58
2022-07-29T17:54:14.773Z,24.48
2022-07-29T17:57:41.929Z,24.40
2022-07-29T18:01:11.135Z,24.31
2022-07-29T18:04:40.498Z,24.20
2022-07-29T18:08:11.393Z,24.11
2022-07-29T18:11:39.101Z,24.01
2022-07-29T18:15:15.638Z,23.88
2022-07-29T18:18:45.207Z,23.76
2022-07-29T18:22:15.804Z,23.64
2022-07-29T18:25:43.361Z,23.53
2022-07-29T18:29:11.492Z,23.43
2022-07-29T18:32:38.911Z,23.33
2022-07-29T18:36:11.237Z,23.25
2022-07-29T18:39:40.997Z,23.14
2022-07-29T18:43:11.025Z,23.05
2022-07-29T18:46:38.651Z,22.94
2022-07-29T18:50:16.602Z,22.85
2022-07-29T18:53:48.381Z,22.75
2022-07-29T18:57:56.289Z,22.65
2022-07-29T19:01:12.401Z,22.52
2022-07-29T19:04:41.876Z,22.41
2022-07-29T19:08:12.940Z,22.31
2022-07-29T19:11:41.618Z,22.25
2022-07-29T19:15:11.035Z,22.16
2022-07-29T19:18:43.530Z,22.07
2022-07-29T19:22:16.641Z,21.95
2022-07-29T19:25:53.567Z,21.84
2022-07-29T19:29:23.850Z,21.74
2022-07-29T19:32:51.622Z,21.63
2022-07-29T19:36:19.562Z,21.53
2022-07-29T19:39:51.664Z,21.43
2022-07-29T19:43:50.632Z,21.35
2022-07-29T19:47:22.107Z,21.25
2022-07-29T19:50:59.555Z,21.17
2022-07-29T19:54:31.495Z,21.08
2022-07-29T19:58:09.411Z,20.99
2022-07-29T20:01:38.588Z,20.91
2022-07-29T20:05:12.678Z,20.85
2022-07-29T20:08:42.668Z,20.78
2022-07-29T20:12:15.029Z,20.72
2022-07-29T20:15:42.830Z,20.63
2022-07-29T20:19:10.829Z,20.57
2022-07-29T20:22:42.585Z,20.49
2022-07-29T20:26:13.325Z,20.42
2022-07-29T20:29:43.687Z,20.36
2022-07-29T20:33:16.544Z,20.30
2022-07-29T20:36:53.936Z,20.22
2022-07-29T20:40:32.006Z,20.14
2022-07-29T20:44:05.307Z,20.07
2022-07-29T20:47:39.620Z,20.01
2022-07-29T20:51:09.051Z,19.96
2022-07-29T20:54:43.527Z,19.90
2022-07-29T20:58:14.931Z,19.84
2022-07-29T21:01:43.311Z,19.78
2022-07-29T21:05:13.551Z,19.73
2022-07-29T21:08:43.184Z,19.67
2022-07-29T21:12:14.058Z,19.62
2022-07-29T21:15:42.619Z,19.54
2022-07-29T21:19:16.065Z,19.48
2022-07-29T21:22:47.334Z,19.42
2022-07-29T21:26:19.002Z,19.37
2022-07-29T21:29:50.027Z,19.32
2022-07-29T21:33:20.241Z,19.26
2022-07-29T21:36:50.507Z,19.20
2022-07-29T21:40:24.016Z,19.15
2022-07-29T21:43:55.742Z,19.09
2022-07-29T21:47:30.225Z,19.01
2022-07-29T21:51:01.781Z,18.95
2022-07-29T21:54:33.906Z,18.90
2022-07-29T21:58:05.749Z,18.85
2022-07-29T22:01:39.467Z,18.78
2022-07-29T22:05:11.948Z,18.70
2022-07-29T22:08:42.479Z,18.63
2022-07-29T22:12:12.853Z,18.54
2022-07-29T22:15:47.060Z,18.50
2022-07-29T22:19:16.365Z,18.45
2022-07-29T22:23:10.332Z,18.40
2022-07-29T22:26:57.860Z,18.41
2022-07-29T22:30:32.289Z,18.39
2022-07-29T22:34:06.545Z,18.39
2022-07-29T22:37:36.466Z,18.41
2022-07-29T22:41:08.587Z,18.39
2022-07-29T22:44:44.383Z,18.36
2022-07-29T22:48:27.231Z,18.37
2022-07-29T22:52:05.954Z,18.33
2022-07-29T22:55:37.723Z,18.30
2022-07-29T22:59:07.034Z,18.24
2022-07-29T23:02:36.652Z,18.15
2022-07-29T23:06:05.651Z,18.10
2022-07-29T23:09:34.614Z,18.03
2022-07-29T23:13:03.136Z,17.97
2022-07-29T23:16:31.580Z,17.91
2022-07-29T23:20:01.248Z,17.85
2022-07-29T23:23:33.905Z,17.79
2022-07-29T23:27:04.490Z,17.72
2022-07-29T23:30:37.313Z,17.67
2022-07-29T23:34:07.690Z,17.60
2022-07-29T23:37:35.092Z,17.54
2022-07-29T23:41:03.942Z,17.52
2022-07-29T23:44:31.669Z,17.51
2022-07-29T23:47:58.783Z,17.51
2022-07-29T23:51:25.912Z,17.49
2022-07-29T23:54:53.460Z,17.49
2022-07-29T23:58:20.714Z,17.47
